sensor_id;sensor_type;location;lat;lon;timestamp;pressure;altitude;pressure_sealevel;temperature;humidity
58658;BME280;44428;45.630;13.786;2023-01-27T00:00:10;101165.00;;;3.08;49.75
58658;BME280;44428;45.630;13.786;2023-01-27T00:02:40;101157.16;;;3.08;49.63
58658;BME280;44428;45.630;13.786;2023-01-27T00:05:07;101157.06;;;3.11;48.98
58658;BME280;44428;45.630;13.786;2023-01-27T00:07:34;101161.50;;;3.09;49.46
58658;BME280;44428;45.630;13.786;2023-01-27T00:09:59;101165.16;;;3.04;49.51
58658;BME280;44428;45.630;13.786;2023-01-27T00:12:26;101139.00;;;3.05;49.27
58658;BME280;44428;45.630;13.786;2023-01-27T00:15:12;101135.44;;;3.08;49.18
58658;BME280;44428;45.630;13.786;2023-01-27T00:17:38;101139.06;;;3.04;49.48
58658;BME280;44428;45.630;13.786;2023-01-27T00:20:05;101149.69;;;2.97;49.62
58658;BME280;44428;45.630;13.786;2023-01-27T00:22:31;101150.66;;;2.95;49.70
58658;BME280;44428;45.630;13.786;2023-01-27T00:25:15;101148.84;;;2.97;49.31
58658;BME280;44428;45.630;13.786;2023-01-27T00:27:41;101145.31;;;2.98;49.71
58658;BME280;44428;45.630;13.786;2023-01-27T00:30:08;101145.31;;;2.98;49.51
58658;BME280;44428;45.630;13.786;2023-01-27T00:32:34;101146.44;;;2.91;49.42
58658;BME280;44428;45.630;13.786;2023-01-27T00:35:18;101131.47;;;2.96;48.40
58658;BME280;44428;45.630;13.786;2023-01-27T00:37:45;101127.66;;;3.06;48.03
58658;BME280;44428;45.630;13.786;2023-01-27T00:40:13;101125.09;;;3.05;47.38
58658;BME280;44428;45.630;13.786;2023-01-27T00:42:39;101130.41;;;3.02;47.51
58658;BME280;44428;45.630;13.786;2023-01-27T00:45:06;101140.00;;;3.01;47.67
58658;BME280;44428;45.630;13.786;2023-01-27T00:47:51;101126.03;;;3.02;47.70
58658;BME280;44428;45.630;13.786;2023-01-27T00:50:18;101129.56;;;3.01;47.82
58658;BME280;44428;45.630;13.786;2023-01-27T00:52:44;101119.22;;;2.98;47.92
58658;BME280;44428;45.630;13.786;2023-01-27T00:55:11;101139.16;;;3.01;47.89
58658;BME280;44428;45.630;13.786;2023-01-27T00:57:37;101117.53;;;2.97;47.89
58658;BME280;44428;45.630;13.786;2023-01-27T01:00:04;101134.59;;;3.07;47.55
58658;BME280;44428;45.630;13.786;2023-01-27T01:02:31;101151.75;;;3.14;47.54
58658;BME280;44428;45.630;13.786;2023-01-27T01:04:57;101144.94;;;3.10;47.47
58658;BME280;44428;45.630;13.786;2023-01-27T01:07:23;101130.97;;;3.11;47.72
58658;BME280;44428;45.630;13.786;2023-01-27T01:09:49;101117.91;;;3.11;47.33
58658;BME280;44428;45.630;13.786;2023-01-27T01:12:14;101130.22;;;3.08;47.33
58658;BME280;44428;45.630;13.786;2023-01-27T01:14:40;101120.63;;;3.08;47.83
58658;BME280;44428;45.630;13.786;2023-01-27T01:17:06;101112.00;;;3.06;47.79
58658;BME280;44428;45.630;13.786;2023-01-27T01:19:32;101109.44;;;3.05;47.31
58658;BME280;44428;45.630;13.786;2023-01-27T01:21:57;101095.44;;;3.07;47.63
58658;BME280;44428;45.630;13.786;2023-01-27T01:24:23;101103.34;;;3.04;47.45
58658;BME280;44428;45.630;13.786;2023-01-27T01:26:50;101105.06;;;3.05;47.39
58658;BME280;44428;45.630;13.786;2023-01-27T01:29:16;101096.25;;;3.09;47.42
58658;BME280;44428;45.630;13.786;2023-01-27T01:31:41;101101.34;;;3.12;47.09
58658;BME280;44428;45.630;13.786;2023-01-27T01:34:08;101093.31;;;3.18;46.79
58658;BME280;44428;45.630;13.786;2023-01-27T01:36:34;101091.38;;;3.24;46.28
58658;BME280;44428;45.630;13.786;2023-01-27T01:39:02;101108.81;;;3.23;46.61
58658;BME280;44428;45.630;13.786;2023-01-27T01:41:28;101107.13;;;3.22;46.63
58658;BME280;44428;45.630;13.786;2023-01-27T01:43:54;101098.34;;;3.25;46.90
58658;BME280;44428;45.630;13.786;2023-01-27T01:46:21;101108.81;;;3.23;47.10
58658;BME280;44428;45.630;13.786;2023-01-27T01:51:27;101109.34;;;3.33;47.48
58658;BME280;44428;45.630;13.786;2023-01-27T01:56:29;101092.94;;;3.29;47.96
58658;BME280;44428;45.630;13.786;2023-01-27T01:58:57;101101.06;;;3.21;48.52
58658;BME280;44428;45.630;13.786;2023-01-27T02:01:25;101106.28;;;3.21;48.31
58658;BME280;44428;45.630;13.786;2023-01-27T02:03:55;101099.50;;;3.16;47.90
58658;BME280;44428;45.630;13.786;2023-01-27T02:06:23;101097.53;;;3.22;47.98
58658;BME280;44428;45.630;13.786;2023-01-27T02:08:49;101081.97;;;3.19;48.16
58658;BME280;44428;45.630;13.786;2023-01-27T02:11:16;101090.00;;;3.13;48.04
58658;BME280;44428;45.630;13.786;2023-01-27T02:13:42;101087.38;;;3.13;47.58
58658;BME280;44428;45.630;13.786;2023-01-27T02:16:09;101097.84;;;3.13;48.24
58658;BME280;44428;45.630;13.786;2023-01-27T02:18:38;101096.06;;;3.14;48.59
58658;BME280;44428;45.630;13.786;2023-01-27T02:21:05;101077.16;;;3.07;48.88
58658;BME280;44428;45.630;13.786;2023-01-27T02:23:45;101101.88;;;2.97;48.82
58658;BME280;44428;45.630;13.786;2023-01-27T02:26:33;101085.78;;;3.09;48.20
58658;BME280;44428;45.630;13.786;2023-01-27T02:29:06;101077.75;;;3.15;47.55
58658;BME280;44428;45.630;13.786;2023-01-27T02:31:32;101073.31;;;3.17;47.58
58658;BME280;44428;45.630;13.786;2023-01-27T02:34:05;101087.28;;;3.16;47.23
58658;BME280;44428;45.630;13.786;2023-01-27T02:36:35;101070.78;;;3.16;46.73
58658;BME280;44428;45.630;13.786;2023-01-27T02:39:04;101083.75;;;3.17;46.48
58658;BME280;44428;45.630;13.786;2023-01-27T02:41:47;101067.88;;;3.24;45.88
58658;BME280;44428;45.630;13.786;2023-01-27T02:44:14;101087.19;;;3.19;45.94
58658;BME280;44428;45.630;13.786;2023-01-27T02:46:40;101050.84;;;3.13;45.70
58658;BME280;44428;45.630;13.786;2023-01-27T02:49:06;101080.25;;;3.18;45.96
58658;BME280;44428;45.630;13.786;2023-01-27T02:51:32;101060.44;;;3.13;45.93
58658;BME280;44428;45.630;13.786;2023-01-27T02:53:58;101094.41;;;3.11;45.66
58658;BME280;44428;45.630;13.786;2023-01-27T02:56:24;101056.97;;;3.12;45.76
58658;BME280;44428;45.630;13.786;2023-01-27T02:58:53;101062.88;;;3.17;45.46
58658;BME280;44428;45.630;13.786;2023-01-27T03:01:25;101056.06;;;3.13;45.46
58658;BME280;44428;45.630;13.786;2023-01-27T03:03:51;101057.66;;;3.17;45.44
58658;BME280;44428;45.630;13.786;2023-01-27T03:06:19;101059.47;;;3.15;45.45
58658;BME280;44428;45.630;13.786;2023-01-27T03:08:44;101063.84;;;3.15;45.48
58658;BME280;44428;45.630;13.786;2023-01-27T03:11:12;101073.41;;;3.14;45.32
58658;BME280;44428;45.630;13.786;2023-01-27T03:13:38;101064.91;;;3.09;45.48
58658;BME280;44428;45.630;13.786;2023-01-27T03:16:05;101057.97;;;3.08;45.41
58658;BME280;44428;45.630;13.786;2023-01-27T03:18:50;101064.19;;;3.04;45.30
58658;BME280;44428;45.630;13.786;2023-01-27T03:21:17;101066.91;;;3.01;45.54
58658;BME280;44428;45.630;13.786;2023-01-27T03:23:43;101061.59;;;3.04;45.66
58658;BME280;44428;45.630;13.786;2023-01-27T03:26:12;101060.94;;;2.97;45.49
58658;BME280;44428;45.630;13.786;2023-01-27T03:28:42;101061.78;;;2.98;45.35
58658;BME280;44428;45.630;13.786;2023-01-27T03:31:13;101068.72;;;2.99;44.83
58658;BME280;44428;45.630;13.786;2023-01-27T03:33:49;101072.03;;;3.04;45.26
58658;BME280;44428;45.630;13.786;2023-01-27T03:36:37;101056.06;;;3.13;44.67
58658;BME280;44428;45.630;13.786;2023-01-27T03:39:22;101061.38;;;3.10;44.08
58658;BME280;44428;45.630;13.786;2023-01-27T03:42:06;101090.28;;;3.06;44.76
58658;BME280;44428;45.630;13.786;2023-01-27T03:44:53;101070.03;;;3.12;44.18
58658;BME280;44428;45.630;13.786;2023-01-27T03:47:37;101080.88;;;3.00;44.60
58658;BME280;44428;45.630;13.786;2023-01-27T03:50:03;101094.72;;;3.02;44.29
58658;BME280;44428;45.630;13.786;2023-01-27T03:52:36;101092.59;;;3.13;44.36
58658;BME280;44428;45.630;13.786;2023-01-27T03:55:02;101087.59;;;3.07;44.21
58658;BME280;44428;45.630;13.786;2023-01-27T03:57:28;101077.03;;;3.10;44.40
58658;BME280;44428;45.630;13.786;2023-01-27T03:59:54;101086.00;;;3.03;44.66
58658;BME280;44428;45.630;13.786;2023-01-27T04:02:20;101080.69;;;3.06;45.12
58658;BME280;44428;45.630;13.786;2023-01-27T04:05:05;101084.88;;;3.10;45.33
58658;BME280;44428;45.630;13.786;2023-01-27T04:07:49;101069.19;;;3.12;45.34
58658;BME280;44428;45.630;13.786;2023-01-27T04:10:15;101084.28;;;3.02;45.21
58658;BME280;44428;45.630;13.786;2023-01-27T04:12:41;101073.53;;;3.11;45.30
58658;BME280;44428;45.630;13.786;2023-01-27T04:15:07;101073.63;;;3.08;45.89
58658;BME280;44428;45.630;13.786;2023-01-27T04:17:33;101101.56;;;3.06;45.75
58658;BME280;44428;45.630;13.786;2023-01-27T04:20:06;101023.25;;;3.06;45.93
58658;BME280;44428;45.630;13.786;2023-01-27T04:22:32;101070.22;;;3.06;45.47
58658;BME280;44428;45.630;13.786;2023-01-27T04:24:58;101064.19;;;3.04;45.56
58658;BME280;44428;45.630;13.786;2023-01-27T04:27:24;101057.97;;;3.08;45.01
58658;BME280;44428;45.630;13.786;2023-01-27T04:29:49;101066.59;;;3.10;45.58
58658;BME280;44428;45.630;13.786;2023-01-27T04:32:15;101057.84;;;3.11;45.59
58658;BME280;44428;45.630;13.786;2023-01-27T04:34:41;101098.13;;;3.04;45.67
58658;BME280;44428;45.630;13.786;2023-01-27T04:37:07;101055.56;;;3.02;45.76
58658;BME280;44428;45.630;13.786;2023-01-27T04:39:33;101061.91;;;2.95;46.48
58658;BME280;44428;45.630;13.786;2023-01-27T04:41:59;101073.09;;;2.98;46.35
58658;BME280;44428;45.630;13.786;2023-01-27T04:44:25;101065.31;;;2.97;46.62
58658;BME280;44428;45.630;13.786;2023-01-27T04:46:51;101072.22;;;2.98;46.73
58658;BME280;44428;45.630;13.786;2023-01-27T04:49:18;101060.31;;;2.91;46.80
58658;BME280;44428;45.630;13.786;2023-01-27T04:51:44;101074.31;;;2.88;47.33
58658;BME280;44428;45.630;13.786;2023-01-27T04:54:10;101067.53;;;2.83;47.28
58658;BME280;44428;45.630;13.786;2023-01-27T04:56:41;101071.25;;;2.75;48.13
58658;BME280;44428;45.630;13.786;2023-01-27T04:59:12;101068.47;;;2.80;47.90
58658;BME280;44428;45.630;13.786;2023-01-27T05:01:41;101093.72;;;2.80;48.38
58658;BME280;44428;45.630;13.786;2023-01-27T05:04:07;101069.22;;;2.84;47.80
58658;BME280;44428;45.630;13.786;2023-01-27T05:06:32;101078.72;;;2.86;48.28
58658;BME280;44428;45.630;13.786;2023-01-27T05:08:58;101064.91;;;2.83;48.40
58658;BME280;44428;45.630;13.786;2023-01-27T05:11:24;101084.97;;;2.81;48.87
58658;BME280;44428;45.630;13.786;2023-01-27T05:13:50;101074.84;;;2.71;49.36
58658;BME280;44428;45.630;13.786;2023-01-27T05:16:18;101071.44;;;2.69;49.56
58658;BME280;44428;45.630;13.786;2023-01-27T05:18:46;101073.13;;;2.70;49.87
58658;BME280;44428;45.630;13.786;2023-01-27T05:21:14;101070.56;;;2.69;49.82
58658;BME280;44428;45.630;13.786;2023-01-27T05:23:41;101080.25;;;2.65;49.73
58658;BME280;44428;45.630;13.786;2023-01-27T05:26:11;101069.81;;;2.65;50.55
58658;BME280;44428;45.630;13.786;2023-01-27T05:28:38;101082.22;;;2.57;50.63
58658;BME280;44428;45.630;13.786;2023-01-27T05:31:13;101069.63;;;2.43;51.60
58658;BME280;44428;45.630;13.786;2023-01-27T05:33:40;101073.25;;;2.39;51.82
58658;BME280;44428;45.630;13.786;2023-01-27T05:36:08;101082.78;;;2.39;51.90
58658;BME280;44428;45.630;13.786;2023-01-27T05:38:34;101065.53;;;2.35;51.74
58658;BME280;44428;45.630;13.786;2023-01-27T05:41:02;101060.03;;;2.44;51.22
58658;BME280;44428;45.630;13.786;2023-01-27T05:43:30;101062.63;;;2.45;51.34
58658;BME280;44428;45.630;13.786;2023-01-27T05:46:11;101057.25;;;2.50;51.70
58658;BME280;44428;45.630;13.786;2023-01-27T05:48:39;101049.53;;;2.47;51.35
58658;BME280;44428;45.630;13.786;2023-01-27T05:51:06;101065.16;;;2.47;51.71
58658;BME280;44428;45.630;13.786;2023-01-27T05:53:32;101052.13;;;2.47;51.48
58658;BME280;44428;45.630;13.786;2023-01-27T05:55:58;101057.22;;;2.51;51.43
58658;BME280;44428;45.630;13.786;2023-01-27T05:58:24;101059.00;;;2.49;51.90
58658;BME280;44428;45.630;13.786;2023-01-27T06:00:50;101055.59;;;2.47;52.11
58658;BME280;44428;45.630;13.786;2023-01-27T06:03:17;101065.25;;;2.44;51.98
58658;BME280;44428;45.630;13.786;2023-01-27T06:05:54;101070.28;;;2.50;51.30
58658;BME280;44428;45.630;13.786;2023-01-27T06:08:22;101071.22;;;2.47;51.75
58658;BME280;44428;45.630;13.786;2023-01-27T06:10:49;101065.06;;;2.50;51.80
58658;BME280;44428;45.630;13.786;2023-01-27T06:13:16;101066.78;;;2.51;51.30
58658;BME280;44428;45.630;13.786;2023-01-27T06:15:44;101066.88;;;2.48;51.70
58658;BME280;44428;45.630;13.786;2023-01-27T06:18:10;101052.84;;;2.52;51.98
58658;BME280;44428;45.630;13.786;2023-01-27T06:20:37;101065.97;;;2.49;52.10
58658;BME280;44428;45.630;13.786;2023-01-27T06:23:03;101061.66;;;2.48;51.99
58658;BME280;44428;45.630;13.786;2023-01-27T06:25:29;101067.75;;;2.48;51.64
58658;BME280;44428;45.630;13.786;2023-01-27T06:27:56;101066.88;;;2.48;51.68
58658;BME280;44428;45.630;13.786;2023-01-27T06:30:22;101078.84;;;2.55;51.31
58658;BME280;44428;45.630;13.786;2023-01-27T06:32:48;101070.28;;;2.50;51.68
58658;BME280;44428;45.630;13.786;2023-01-27T06:35:14;101056.25;;;2.54;51.88
58658;BME280;44428;45.630;13.786;2023-01-27T06:37:40;101047.53;;;2.55;51.96
58658;BME280;44428;45.630;13.786;2023-01-27T06:40:06;101077.09;;;2.54;52.36
58658;BME280;44428;45.630;13.786;2023-01-27T06:42:34;101070.00;;;2.59;51.73
58658;BME280;44428;45.630;13.786;2023-01-27T06:45:00;101060.31;;;2.63;52.11
58658;BME280;44428;45.630;13.786;2023-01-27T06:47:25;101108.00;;;2.68;51.97
58658;BME280;44428;45.630;13.786;2023-01-27T06:49:51;101073.44;;;2.61;52.47
58658;BME280;44428;45.630;13.786;2023-01-27T06:52:17;101062.78;;;2.67;52.51
58658;BME280;44428;45.630;13.786;2023-01-27T06:54:42;101071.53;;;2.66;52.59
58658;BME280;44428;45.630;13.786;2023-01-27T06:57:09;101067.91;;;2.70;52.70
58658;BME280;44428;45.630;13.786;2023-01-27T06:59:34;101076.66;;;2.69;53.30
58658;BME280;44428;45.630;13.786;2023-01-27T07:02:00;101069.78;;;2.67;53.37
58658;BME280;44428;45.630;13.786;2023-01-27T07:04:26;101071.53;;;2.66;53.44
58658;BME280;44428;45.630;13.786;2023-01-27T07:06:52;101093.28;;;2.65;53.82
58658;BME280;44428;45.630;13.786;2023-01-27T07:09:17;101083.75;;;2.64;54.04
58658;BME280;44428;45.630;13.786;2023-01-27T07:11:43;101080.25;;;2.65;54.02
58658;BME280;44428;45.630;13.786;2023-01-27T07:14:09;101069.72;;;2.68;53.86
58658;BME280;44428;45.630;13.786;2023-01-27T07:16:35;101071.44;;;2.69;53.82
58658;BME280;44428;45.630;13.786;2023-01-27T07:19:01;101083.66;;;2.67;53.58
58658;BME280;44428;45.630;13.786;2023-01-27T07:21:26;101076.75;;;2.66;53.60
58658;BME280;44428;45.630;13.786;2023-01-27T07:23:52;101073.84;;;2.75;53.46
58658;BME280;44428;45.630;13.786;2023-01-27T07:26:18;101078.06;;;2.80;52.76
58658;BME280;44428;45.630;13.786;2023-01-27T07:28:43;101091.91;;;2.82;52.68
58658;BME280;44428;45.630;13.786;2023-01-27T07:31:09;101084.78;;;2.87;52.34
58658;BME280;44428;45.630;13.786;2023-01-27T07:33:35;101078.59;;;2.89;52.49
58658;BME280;44428;45.630;13.786;2023-01-27T07:36:01;101084.47;;;2.96;51.62
58658;BME280;44428;45.630;13.786;2023-01-27T07:38:27;101072.22;;;2.98;51.28
58658;BME280;44428;45.630;13.786;2023-01-27T07:40:53;101077.16;;;3.07;50.67
58658;BME280;44428;45.630;13.786;2023-01-27T07:43:18;101062.88;;;3.17;50.43
58658;BME280;44428;45.630;13.786;2023-01-27T07:45:45;101078.44;;;3.20;49.91
58658;BME280;44428;45.630;13.786;2023-01-27T07:48:15;101080.19;;;3.20;50.16
58658;BME280;44428;45.630;13.786;2023-01-27T07:50:41;101073.00;;;3.27;49.79
58658;BME280;44428;45.630;13.786;2023-01-27T07:53:09;101074.63;;;3.31;49.51
58658;BME280;44428;45.630;13.786;2023-01-27T07:55:34;101081.34;;;3.38;49.07
58658;BME280;44428;45.630;13.786;2023-01-27T07:58:00;101076.81;;;3.43;48.89
58658;BME280;44428;45.630;13.786;2023-01-27T08:00:26;101081.00;;;3.47;48.72
58658;BME280;44428;45.630;13.786;2023-01-27T08:02:54;101113.16;;;3.49;48.77
58658;BME280;44428;45.630;13.786;2023-01-27T08:05:20;101077.09;;;3.60;48.56
58658;BME280;44428;45.630;13.786;2023-01-27T08:07:48;101087.53;;;3.60;48.56
58658;BME280;44428;45.630;13.786;2023-01-27T08:10:13;101088.09;;;3.68;47.93
58658;BME280;44428;45.630;13.786;2023-01-27T08:12:39;101093.22;;;3.72;47.85
58658;BME280;44428;45.630;13.786;2023-01-27T08:15:05;101095.59;;;3.78;47.63
58658;BME280;44428;45.630;13.786;2023-01-27T08:17:31;101112.78;;;3.85;47.30
58658;BME280;44428;45.630;13.786;2023-01-27T08:19:57;101115.97;;;3.93;47.49
58658;BME280;44428;45.630;13.786;2023-01-27T08:22:22;101105.84;;;3.84;47.40
58658;BME280;44428;45.630;13.786;2023-01-27T08:24:48;101112.47;;;3.94;47.59
58658;BME280;44428;45.630;13.786;2023-01-27T08:27:15;101093.25;;;3.95;47.97
58658;BME280;44428;45.630;13.786;2023-01-27T08:29:41;101119.59;;;3.89;48.13
58658;BME280;44428;45.630;13.786;2023-01-27T08:32:07;101126.53;;;3.90;48.03
58658;BME280;44428;45.630;13.786;2023-01-27T08:34:33;101109.25;;;3.86;48.20
58658;BME280;44428;45.630;13.786;2023-01-27T08:36:59;101122.34;;;3.86;48.26
58658;BME280;44428;45.630;13.786;2023-01-27T08:39:25;101132.69;;;3.89;48.64
58658;BME280;44428;45.630;13.786;2023-01-27T08:41:50;101121.06;;;3.96;48.03
58658;BME280;44428;45.630;13.786;2023-01-27T08:44:16;101113.94;;;4.01;47.88
58658;BME280;44428;45.630;13.786;2023-01-27T08:46:42;101110.28;;;4.05;47.84
58658;BME280;44428;45.630;13.786;2023-01-27T08:49:08;101118.81;;;4.10;47.62
58658;BME280;44428;45.630;13.786;2023-01-27T08:51:33;101134.16;;;4.20;47.35
58658;BME280;44428;45.630;13.786;2023-01-27T08:53:59;101139.78;;;4.32;46.99
58658;BME280;44428;45.630;13.786;2023-01-27T08:56:25;101113.09;;;4.70;46.25
58658;BME280;44428;45.630;13.786;2023-01-27T08:58:51;101127.22;;;5.91;43.81
58658;BME280;44428;45.630;13.786;2023-01-27T09:01:18;101125.69;;;7.70;40.08
58658;BME280;44428;45.630;13.786;2023-01-27T09:03:44;101126.56;;;8.85;37.77
58658;BME280;44428;45.630;13.786;2023-01-27T09:06:11;101141.94;;;9.69;36.39
58658;BME280;44428;45.630;13.786;2023-01-27T09:08:39;101149.84;;;9.69;36.12
58658;BME280;44428;45.630;13.786;2023-01-27T09:11:15;101100.56;;;9.25;37.10
58658;BME280;44428;45.630;13.786;2023-01-27T09:13:42;101125.31;;;8.60;37.89
58658;BME280;44428;45.630;13.786;2023-01-27T09:16:08;101135.06;;;8.74;38.08
58658;BME280;44428;45.630;13.786;2023-01-27T09:18:34;101127.94;;;9.52;36.72
58658;BME280;44428;45.630;13.786;2023-01-27T09:21:04;101145.34;;;9.85;35.42
58658;BME280;44428;45.630;13.786;2023-01-27T09:23:31;101143.03;;;9.04;36.91
58658;BME280;44428;45.630;13.786;2023-01-27T09:25:57;101135.91;;;8.43;38.06
58658;BME280;44428;45.630;13.786;2023-01-27T09:28:22;101201.53;;;8.95;37.37
58658;BME280;44428;45.630;13.786;2023-01-27T09:30:48;101147.66;;;8.85;37.39
58658;BME280;44428;45.630;13.786;2023-01-27T09:33:14;101154.00;;;7.83;39.17
58658;BME280;44428;45.630;13.786;2023-01-27T09:36:03;101146.25;;;7.10;40.81
58658;BME280;44428;45.630;13.786;2023-01-27T09:38:34;101148.59;;;6.61;41.38
58658;BME280;44428;45.630;13.786;2023-01-27T09:52:36;101130.75;;;8.08;38.80
58658;BME280;44428;45.630;13.786;2023-01-27T10:12:10;101140.38;;;15.03;25.96
58658;BME280;44428;45.630;13.786;2023-01-27T10:17:50;101136.25;;;16.86;24.07
58658;BME280;44428;45.630;13.786;2023-01-27T10:20:24;101110.00;;;16.91;23.33
58658;BME280;44428;45.630;13.786;2023-01-27T10:28:15;101138.72;;;16.28;23.48
58658;BME280;44428;45.630;13.786;2023-01-27T10:33:28;101128.25;;;16.86;23.33
58658;BME280;44428;45.630;13.786;2023-01-27T10:36:13;101140.06;;;16.43;23.46
58658;BME280;44428;45.630;13.786;2023-01-27T10:38:49;101128.59;;;16.22;23.63
58658;BME280;44428;45.630;13.786;2023-01-27T10:46:59;101121.84;;;13.80;27.18
58658;BME280;44428;45.630;13.786;2023-01-27T10:49:34;101112.44;;;13.87;26.84
58658;BME280;44428;45.630;13.786;2023-01-27T10:52:12;101108.38;;;15.26;25.40
58658;BME280;44428;45.630;13.786;2023-01-27T10:54:54;101110.16;;;16.49;24.05
58658;BME280;44428;45.630;13.786;2023-01-27T10:57:44;101102.25;;;16.38;24.08
58658;BME280;44428;45.630;13.786;2023-01-27T11:00:33;101103.53;;;16.03;23.99
58658;BME280;44428;45.630;13.786;2023-01-27T11:05:40;101112.94;;;15.77;24.22
58658;BME280;44428;45.630;13.786;2023-01-27T11:08:14;101119.78;;;15.17;24.73
58658;BME280;44428;45.630;13.786;2023-01-27T11:10:47;101128.72;;;15.16;25.28
58658;BME280;44428;45.630;13.786;2023-01-27T11:13:32;101119.47;;;14.10;26.15
58658;BME280;44428;45.630;13.786;2023-01-27T11:16:03;101097.22;;;13.66;26.92
58658;BME280;44428;45.630;13.786;2023-01-27T11:18:33;101098.38;;;12.92;27.46
58658;BME280;44428;45.630;13.786;2023-01-27T11:21:14;101125.59;;;12.46;28.84
58658;BME280;44428;45.630;13.786;2023-01-27T11:23:48;101126.84;;;12.90;28.29
58658;BME280;44428;45.630;13.786;2023-01-27T11:35:12;101118.94;;;17.49;23.04
58658;BME280;44428;45.630;13.786;2023-01-27T11:37:40;101101.53;;;18.39;21.84
58658;BME280;44428;45.630;13.786;2023-01-27T11:42:43;101103.91;;;18.14;21.63
58658;BME280;44428;45.630;13.786;2023-01-27T11:45:15;101110.22;;;16.79;22.81
58658;BME280;44428;45.630;13.786;2023-01-27T11:47:42;101122.91;;;16.86;23.27
58658;BME280;44428;45.630;13.786;2023-01-27T11:50:15;101116.50;;;16.58;23.11
58658;BME280;44428;45.630;13.786;2023-01-27T11:52:45;101132.63;;;16.57;23.35
58658;BME280;44428;45.630;13.786;2023-01-27T11:57:41;101138.66;;;17.09;22.83
58658;BME280;44428;45.630;13.786;2023-01-27T12:00:28;101113.59;;;18.15;21.90
58658;BME280;44428;45.630;13.786;2023-01-27T12:03:06;101130.75;;;18.50;21.34
58658;BME280;44428;45.630;13.786;2023-01-27T12:05:41;101111.75;;;18.25;21.50
58658;BME280;44428;45.630;13.786;2023-01-27T12:08:09;101115.00;;;16.85;22.42
58658;BME280;44428;45.630;13.786;2023-01-27T12:10:39;101110.97;;;17.10;22.38
58658;BME280;44428;45.630;13.786;2023-01-27T12:13:19;101111.38;;;17.44;22.06
58658;BME280;44428;45.630;13.786;2023-01-27T12:16:08;101102.00;;;17.97;21.99
58658;BME280;44428;45.630;13.786;2023-01-27T12:18:34;101103.47;;;17.62;22.02
58658;BME280;44428;45.630;13.786;2023-01-27T12:21:04;101095.75;;;18.06;21.67
58658;BME280;44428;45.630;13.786;2023-01-27T12:23:35;101093.78;;;18.08;21.44
58658;BME280;44428;45.630;13.786;2023-01-27T12:26:06;101093.03;;;17.78;20.98
58658;BME280;44428;45.630;13.786;2023-01-27T12:28:36;101100.97;;;17.51;22.19
58658;BME280;44428;45.630;13.786;2023-01-27T12:31:07;101084.41;;;17.37;22.14
58658;BME280;44428;45.630;13.786;2023-01-27T12:33:37;101100.22;;;16.21;23.00
58658;BME280;44428;45.630;13.786;2023-01-27T12:36:14;101101.97;;;15.49;23.89
58658;BME280;44428;45.630;13.786;2023-01-27T12:38:50;101095.00;;;15.37;24.48
58658;BME280;44428;45.630;13.786;2023-01-27T12:41:26;101104.66;;;15.70;24.09
58658;BME280;44428;45.630;13.786;2023-01-27T12:44:14;101088.13;;;15.55;24.27
58658;BME280;44428;45.630;13.786;2023-01-27T12:47:03;101098.91;;;15.01;24.45
58658;BME280;44428;45.630;13.786;2023-01-27T12:49:34;101079.25;;;14.92;25.00
58658;BME280;44428;45.630;13.786;2023-01-27T12:52:02;101081.06;;;15.54;24.50
58658;BME280;44428;45.630;13.786;2023-01-27T12:54:31;101079.44;;;15.63;24.12
58658;BME280;44428;45.630;13.786;2023-01-27T12:57:05;101076.97;;;15.08;24.56
58658;BME280;44428;45.630;13.786;2023-01-27T12:59:41;101087.09;;;13.71;26.22
58658;BME280;44428;45.630;13.786;2023-01-27T13:02:24;101120.44;;;13.98;26.04
58658;BME280;44428;45.630;13.786;2023-01-27T13:05:03;101112.94;;;12.62;27.41
58658;BME280;44428;45.630;13.786;2023-01-27T13:07:37;101107.66;;;11.34;29.51
58658;BME280;44428;45.630;13.786;2023-01-27T13:10:05;101111.22;;;11.08;30.64
58658;BME280;44428;45.630;13.786;2023-01-27T13:12:48;101094.00;;;12.43;28.68
58658;BME280;44428;45.630;13.786;2023-01-27T13:15:17;101089.50;;;14.08;26.65
58658;BME280;44428;45.630;13.786;2023-01-27T13:22:50;101096.75;;;14.29;25.65
58658;BME280;44428;45.630;13.786;2023-01-27T13:25:28;101112.22;;;13.90;26.08
58658;BME280;44428;45.630;13.786;2023-01-27T13:27:57;101110.22;;;13.47;26.49
58658;BME280;44428;45.630;13.786;2023-01-27T13:30:35;101085.41;;;13.93;25.95
58658;BME280;44428;45.630;13.786;2023-01-27T13:33:18;101102.59;;;13.42;26.80
58658;BME280;44428;45.630;13.786;2023-01-27T13:35:57;101108.13;;;13.39;27.05
58658;BME280;44428;45.630;13.786;2023-01-27T13:38:32;101100.66;;;13.44;27.16
58658;BME280;44428;45.630;13.786;2023-01-27T13:41:05;101098.25;;;13.17;27.70
58658;BME280;44428;45.630;13.786;2023-01-27T13:43:37;101098.19;;;13.65;27.04
58658;BME280;44428;45.630;13.786;2023-01-27T13:46:20;101101.34;;;14.38;26.84
58658;BME280;44428;45.630;13.786;2023-01-27T13:48:58;101094.34;;;13.92;26.27
58658;BME280;44428;45.630;13.786;2023-01-27T13:51:29;101082.00;;;13.68;26.76
58658;BME280;44428;45.630;13.786;2023-01-27T13:54:00;101090.19;;;13.54;27.12
58658;BME280;44428;45.630;13.786;2023-01-27T14:04:34;101098.94;;;12.60;28.07
58658;BME280;44428;45.630;13.786;2023-01-27T14:20:37;101112.59;;;11.79;29.23
58658;BME280;44428;45.630;13.786;2023-01-27T14:23:23;101108.63;;;11.99;28.95
58658;BME280;44428;45.630;13.786;2023-01-27T14:26:16;101117.72;;;12.07;29.19
58658;BME280;44428;45.630;13.786;2023-01-27T14:39:50;101127.72;;;11.64;29.75
58658;BME280;44428;45.630;13.786;2023-01-27T14:45:10;101132.94;;;10.44;31.64
58658;BME280;44428;45.630;13.786;2023-01-27T14:50:22;101141.34;;;10.78;31.77